Latest Weather Observations for Jandakot

IDW60901

Issued at 9:21 pm WST Monday 25 January 2021 (issued every 10 minutes, with the page automatically refreshed every 10 minutes)

About weather observations | Map of Perth area stations | Latest observations for Perth area | Other Formats
Station Details ID: 009172 Name: JANDAKOT AERO Lat: -32.10 Lon: 115.88 Height: 30.0 m
Data from the previous 72 hours. | See also: Recent months at Jandakot
Date/Time
WST
Temp
°C
App
Temp
°C
Dew
Point
°C
Rel
Hum
%
Delta-T
°C
Wind Press
QNH
hPa
Press
MSL
hPa
Rain since
9am
mm
Dir  Spd
km/h
Gust
km/h
Spd
kts
Gust
kts
25/09:00pm 20.4 18.8 15.0 71 3.2 SSW 17 20 9 11 1009.6 1009.4 0.0
25/08:30pm 20.7 18.6 15.3 71 3.2 SSW 20 30 11 16 1009.3 1009.1 0.0
25/08:00pm 21.0 18.2 15.3 70 3.4 SSW 24 32 13 17 1009.1 1008.9 0.0
25/07:30pm 21.6 18.1 14.5 64 4.2 SW 26 35 14 19 1008.9 1008.7 0.0
25/07:00pm 22.4 19.2 13.2 56 5.3 SW 22 30 12 16 1008.7 1008.5 0.0
25/06:30pm 22.9 18.1 12.8 53 5.8 SW 30 41 16 22 1008.7 1008.5 0.0
25/06:00pm 23.9 19.2 11.9 47 6.8 SW 28 37 15 20 1008.5 1008.3 0.0
25/05:30pm 24.6 19.3 11.2 43 7.5 SW 30 41 16 22 1008.5 1008.3 0.0
25/05:00pm 24.7 20.5 12.3 46 7.1 SW 26 35 14 19 1008.4 1008.2 0.0
25/04:30pm 25.0 19.9 11.9 44 7.5 SW 30 35 16 19 1008.5 1008.3 0.0
25/04:00pm 25.7 20.8 9.9 37 8.8 SW 26 35 14 19 1008.5 1008.3 0.0
25/03:30pm 25.4 19.9 10.4 39 8.4 SW 30 39 16 21 1008.5 1008.3 0.0
25/03:00pm 25.5 20.7 8.9 35 9.0 SW 24 35 13 19 1008.6 1008.4 0.0
25/02:30pm 26.1 21.2 9.9 36 9.0 WSW 26 35 14 19 1008.7 1008.5 0.0
25/02:00pm 25.9 20.4 9.3 35 9.1 WSW 28 37 15 20 1008.9 1008.7 0.0
25/01:30pm 26.2 20.2 8.7 33 9.5 WSW 30 39 16 21 1009.1 1008.9 0.0
25/01:00pm 26.2 20.8 8.2 32 9.7 W 26 33 14 18 1009.2 1009.0 0.0
25/12:30pm 26.3 21.7 9.6 35 9.2 W 24 33 13 18 1009.4 1009.2 0.0
25/12:00pm 26.1 22.5 10.7 38 8.7 WSW 20 32 11 17 1009.7 1009.5 0.0
25/11:30am 26.0 21.8 11.0 39 8.5 W 24 32 13 17 1009.8 1009.6 0.0
25/11:00am 26.0 24.3 8.5 33 9.5 S 7 15 4 8 1009.9 1009.7 0.0
25/10:30am 25.9 24.4 9.3 35 9.1 S 7 13 4 7 1010.1 1009.9 0.0
25/10:00am 24.0 22.7 9.2 39 8.0 SSW 6 13 3 7 1010.3 1010.1 0.0
25/09:30am 23.6 21.9 9.9 42 7.5 SW 9 15 5 8 1010.6 1010.4 0.0
25/09:00am 22.8 20.7 9.9 44 7.0 S 11 17 6 9 1010.8 1010.6 0.0
25/08:30am 21.6 20.7 12.5 56 5.2 SSW 9 11 5 6 1010.9 1010.7 0.0
25/08:00am 20.8 19.6 12.8 60 4.5 S 11 15 6 8 1010.9 1010.7 0.0
25/07:30am 19.4 18.2 12.7 65 3.8 SSE 11 13 6 7 1010.8 1010.6 0.0
25/07:00am 19.0 17.7 12.5 66 3.6 S 11 15 6 8 1010.7 1010.5 0.0
25/06:30am 18.0 16.9 12.0 68 3.3 SSW 9 11 5 6 1010.3 1010.1 0.0
25/06:00am 17.4 16.7 12.1 71 2.9 S 7 9 4 5 1010.2 1010.0 0.0
25/05:30am 17.4 15.9 11.9 70 3.0 S 11 13 6 7 1010.0 1009.8 0.0
25/05:00am 17.4 16.3 11.9 70 3.0 S 9 11 5 6 1009.6 1009.4 0.0
25/04:30am 17.2 16.4 11.7 70 3.0 SSE 7 11 4 6 1009.4 1009.2 0.0
25/04:00am 17.0 15.9 11.9 72 2.8 SSE 9 13 5 7 1009.3 1009.1 0.0
25/03:30am 16.9 15.5 12.2 74 2.6 SSE 11 13 6 7 1009.3 1009.1 0.0
25/03:00am 17.1 15.6 12.0 72 2.8 S 11 15 6 8 1009.1 1008.9 0.0
25/02:30am 17.5 15.2 11.8 69 3.1 S 15 19 8 10 1008.9 1008.7 0.0
25/02:00am 17.7 15.6 12.4 71 2.9 S 15 19 8 10 1009.1 1008.9 0.0
25/01:30am 17.5 16.4 13.0 75 2.5 S 11 15 6 8 1008.9 1008.7 0.0
25/01:00am 17.0 16.1 12.5 75 2.5 S 9 11 5 6 1009.0 1008.8 0.0
25/12:30am 18.9 17.9 13.5 71 3.1 SSW 11 15 6 8 1009.0 1008.8 0.0
25/12:00am 19.0 17.9 13.2 69 3.3 SSW 11 15 6 8 1009.1 1008.9 0.0
 
Date/Time
WST
Temp
°C
App
Temp
°C
Dew
Point
°C
Rel
Hum
%
Delta-T
°C
Wind Press
QNH
hPa
Press
MSL
hPa
Rain since
9am
mm
Dir  Spd
km/h
Gust
km/h
Spd
kts
Gust
kts
24/11:30pm 19.3 18.3 13.3 68 3.4 SSW 11 15 6 8 1009.2 1009.0 0.0
24/11:00pm 19.6 18.1 13.1 66 3.7 SSW 13 19 7 10 1009.0 1008.8 0.0
24/10:30pm 19.8 18.8 13.5 67 3.6 S 11 15 6 8 1009.2 1009.0 0.0
24/10:00pm 20.2 19.0 13.9 67 3.6 SSW 13 20 7 11 1009.2 1009.0 0.0
24/09:30pm 20.8 18.5 14.2 66 3.8 SSW 19 24 10 13 1009.2 1009.0 0.0
24/09:00pm 21.1 18.3 14.3 65 4.0 SSW 22 30 12 16 1008.9 1008.7 0.0
24/08:30pm 21.6 19.2 14.3 63 4.3 SW 20 28 11 15 1008.8 1008.6 0.0
24/08:00pm 21.6 19.2 14.3 63 4.3 SW 20 28 11 15 1008.5 1008.3 0.0
24/07:30pm 21.9 18.8 14.5 63 4.3 SSW 24 33 13 18 1008.3 1008.1 0.0
24/07:00pm 22.4 19.7 14.5 61 4.7 WSW 22 32 12 17 1007.9 1007.7 0.0
24/06:30pm 22.6 18.7 14.4 60 4.8 WSW 28 35 15 19 1007.5 1007.3 0.0
24/06:00pm 22.8 18.4 13.0 54 5.6 WSW 28 35 15 19 1007.1 1006.9 0.0
24/05:30pm 23.9 20.3 14.3 55 5.7 WSW 26 35 14 19 1006.8 1006.6 0.0
24/05:00pm 24.7 20.6 13.9 51 6.4 WSW 28 35 15 19 1006.5 1006.3 0.0
24/04:30pm 25.3 20.9 12.9 46 7.2 WSW 28 41 15 22 1006.4 1006.2 0.0
24/04:00pm 25.4 20.6 10.4 39 8.4 SW 26 37 14 20 1006.5 1006.3 0.0
24/03:30pm 25.4 19.7 11.9 43 7.7 WSW 33 43 18 23 1006.5 1006.3 0.0
24/03:00pm 26.0 21.3 12.1 42 8.0 WSW 28 39 15 21 1006.5 1006.3 0.0
24/02:30pm 26.0 21.6 12.8 44 7.7 WSW 28 37 15 20 1006.5 1006.3 0.0
24/02:00pm 25.6 21.8 13.5 47 7.1 SW 26 35 14 19 1006.7 1006.5 0.0
24/01:30pm 25.1 21.9 14.3 51 6.4 SW 24 32 13 17 1006.8 1006.6 0.0
24/01:00pm 23.1 19.1 16.2 65 4.2 WSW 32 43 17 23 1007.2 1007.0 0.0
24/12:30pm 23.4 19.8 16.2 64 4.4 SW 30 37 16 20 1007.2 1007.0 0.0
24/12:00pm 24.5 20.3 16.2 60 5.1 WSW 33 43 18 23 1007.0 1006.8 0.0
24/11:53am 24.4 20.7 15.9 59 5.2 W 30 43 16 23 1007.0 1006.8 0.0
24/11:30am 26.6 22.2 13.0 43 8.0 W 28 35 15 19 1007.1 1006.9 0.0
24/11:00am 25.6 21.5 11.4 41 8.1 WSW 24 39 13 21 1007.1 1006.9 0.0
24/10:30am 26.4 21.9 10.1 36 9.1 WSW 24 37 13 20 1007.1 1006.9 0.0
24/10:00am 25.9 22.0 10.9 39 8.5 W 22 32 12 17 1007.2 1007.0 0.0
24/09:30am 25.0 22.0 10.8 41 7.9 SW 17 24 9 13 1007.3 1007.1 0.0
24/09:00am 23.1 22.0 15.4 62 4.6 WSW 15 22 8 12 1007.6 1007.4 0.0
24/08:30am 23.0 24.8 16.5 67 4.0 SW 2 15 1 8 1007.5 1007.3 0.0
24/08:00am 21.5 23.5 16.0 71 3.3 CALM 0 0 0 0 1007.6 1007.4 0.0
24/07:30am 21.0 22.0 15.3 70 3.4 ENE 4 9 2 5 1007.4 1007.2 0.0
24/07:00am 19.8 21.6 15.4 76 2.6 CALM 0 0 0 0 1007.3 1007.1 0.0
24/06:30am 17.3 18.9 14.8 85 1.4 CALM 0 0 0 0 1006.9 1006.7 0.0
24/06:00am 15.3 16.6 14.0 92 0.7 CALM 0 0 0 0 1006.6 1006.4 0.0
24/05:30am 14.5 15.5 13.2 92 0.7 CALM 0 0 0 0 1006.5 1006.3 0.0
24/05:00am 14.9 16.1 13.9 94 0.6 CALM 0 0 0 0 1006.0 1005.8 0.0
24/04:30am 14.9 15.9 13.3 90 0.9 CALM 0 0 0 0 1005.6 1005.4 0.0
24/04:00am 15.8 17.1 14.2 90 0.9 CALM 0 0 0 0 1005.5 1005.3 0.0
24/03:30am 16.2 17.6 14.4 89 1.0 CALM 0 0 0 0 1005.3 1005.1 0.0
24/03:00am 16.7 16.6 13.8 83 1.6 SSE 7 9 4 5 1005.1 1004.9 0.0
24/02:30am 17.7 17.1 14.6 82 1.8 SSE 11 13 6 7 1005.1 1004.9 0.0
24/02:00am 18.3 17.7 14.6 79 2.1 S 11 13 6 7 1005.1 1004.9 0.0
24/01:30am 18.8 18.5 14.5 76 2.5 S 9 11 5 6 1005.4 1005.2 0.0
24/01:00am 19.2 18.8 14.2 73 2.9 SSW 9 9 5 5 1005.6 1005.4 0.0
24/12:30am 19.5 19.2 14.3 72 3.0 SW 9 11 5 6 1005.6 1005.4 0.0
24/12:00am 20.4 19.4 14.5 69 3.5 SW 13 17 7 9 1005.8 1005.6 0.0
 
Date/Time
WST
Temp
°C
App
Temp
°C
Dew
Point
°C
Rel
Hum
%
Delta-T
°C
Wind Press
QNH
hPa
Press
MSL
hPa
Rain since
9am
mm
Dir  Spd
km/h
Gust
km/h
Spd
kts
Gust
kts
23/11:30pm 20.7 19.7 14.6 68 3.6 WSW 13 19 7 10 1005.8 1005.6 0.0
23/11:00pm 20.9 19.8 14.3 66 3.9 SW 13 17 7 9 1005.9 1005.7 0.0
23/10:30pm 21.0 19.6 14.6 67 3.8 SW 15 20 8 11 1006.2 1006.0 0.0
23/10:00pm 21.0 19.0 14.9 68 3.6 WSW 19 24 10 13 1006.2 1006.0 0.0
23/09:30pm 21.1 19.0 14.7 67 3.8 WSW 19 24 10 13 1006.1 1005.9 0.0
23/09:00pm 21.2 19.4 15.5 70 3.4 SW 19 30 10 16 1005.9 1005.7 0.0
23/08:30pm 21.3 19.3 15.4 69 3.5 WSW 20 26 11 14 1005.4 1005.2 0.0
23/08:00pm 21.7 19.3 15.5 68 3.7 SW 22 30 12 16 1005.2 1005.0 0.0
23/07:30pm 21.8 19.7 16.3 71 3.3 SW 22 30 12 16 1004.8 1004.6 0.0
23/07:00pm 22.1 20.6 16.8 72 3.2 SW 20 28 11 15 1004.7 1004.5 0.0
23/06:30pm 22.3 20.4 16.6 70 3.5 SW 22 30 12 16 1004.3 1004.1 0.0
23/06:00pm 22.8 20.2 16.8 69 3.7 WSW 26 43 14 23 1003.9 1003.7 0.0
23/05:30pm 22.9 19.5 16.7 68 3.8 WSW 30 39 16 21 1003.2 1003.0 0.0
23/05:00pm 24.2 21.5 16.7 63 4.6 SW 26 37 14 20 1002.7 1002.5 0.0
23/04:30pm 24.8 22.3 17.0 62 4.8 WSW 26 39 14 21 1002.9 1002.7 0.0
23/04:00pm 24.7 21.7 16.7 61 4.9 WSW 28 37 15 20 1003.0 1002.8 0.0
23/03:57pm 24.5 21.5 16.7 61 4.8 WSW 28 46 15 25 1003.0 1002.8 0.0
23/03:30pm 25.2 21.4 16.6 59 5.3 WSW 32 43 17 23 1003.0 1002.8 0.0
23/03:00pm 25.5 23.0 17.2 60 5.2 SW 26 35 14 19 1002.9 1002.7 0.0
23/02:30pm 25.6 22.2 16.7 58 5.5 WSW 30 39 16 21 1002.9 1002.7 0.0
23/02:00pm 26.2 23.0 17.3 58 5.6 WSW 30 41 16 22 1002.8 1002.6 0.0
23/01:30pm 26.1 23.3 17.2 58 5.6 WSW 28 35 15 19 1002.7 1002.5 0.0
23/01:00pm 27.1 24.1 17.8 56 5.9 WSW 30 37 16 20 1002.7 1002.5 0.0
23/12:30pm 26.3 23.1 18.2 61 5.1 WSW 32 43 17 23 1002.8 1002.6 0.0
23/12:00pm 26.1 23.4 18.5 63 4.9 SW 30 43 16 23 1002.8 1002.6 0.0
23/11:30am 26.0 23.3 18.4 63 4.8 WSW 30 41 16 22 1003.0 1002.8 0.0
23/11:00am 26.0 23.8 18.7 64 4.7 SW 28 39 15 21 1003.0 1002.8 0.0
23/10:30am 25.4 22.4 18.6 66 4.3 WSW 32 44 17 24 1003.1 1002.9 0.0
23/10:00am 26.2 24.8 18.9 64 4.7 W 24 32 13 17 1002.9 1002.7 0.0
23/09:30am 26.1 25.1 18.0 61 5.1 WSW 20 28 11 15 1002.4 1002.2 0.0
23/09:00am 26.1 25.0 17.7 60 5.3 W 20 24 11 13 1002.1 1001.9 0.0
23/08:30am 25.8 26.4 18.5 64 4.6 WSW 13 17 7 9 1001.7 1001.5 0.0
23/08:00am 24.7 25.6 18.4 68 4.0 S 11 19 6 10 1001.8 1001.6 0.0
23/07:30am 24.0 24.3 18.0 69 3.8 SW 13 20 7 11 1001.8 1001.6 0.0
23/07:00am 22.5 22.4 14.9 62 4.5 SW 9 13 5 7 1001.5 1001.3 0.0
23/06:30am 20.7 22.3 14.8 69 3.5 CALM 0 0 0 0 1001.2 1001.0 0.0
23/06:00am 18.6 19.8 13.9 74 2.7 CALM 0 0 0 0 1001.5 1001.3 0.0
23/05:30am 18.3 19.6 14.0 76 2.5 CALM 0 0 0 0 1001.1 1000.9 0.0
23/05:00am 19.7 19.7 13.6 68 3.5 SW 6 7 3 4 1000.9 1000.7 0.0
23/04:30am 20.2 17.8 13.9 67 3.6 SW 19 32 10 17 1001.1 1000.9 0.0
23/04:00am 19.9 19.7 13.6 67 3.6 NE 7 11 4 6 1000.3 1000.2 0.0
23/03:30am 17.8 16.8 13.5 76 2.4 E 11 13 6 7 1000.0 999.9 0.0
23/03:00am 17.3 17.2 13.8 80 2.0 S 7 9 4 5 1000.1 1000.0 0.0
23/02:30am 16.7 17.8 13.6 82 1.7 CALM 0 0 0 0 1000.7 1000.5 0.0
23/02:00am 17.7 19.2 14.6 82 1.8 CALM 0 0 0 0 1000.4 1000.3 0.0
23/01:30am 18.4 19.8 14.3 77 2.4 CALM 0 0 0 0 1000.9 1000.7 0.0
23/01:00am 19.7 21.2 14.7 73 2.9 CALM 0 0 0 0 1001.1 1000.9 0.0
23/12:30am 19.2 19.5 14.9 76 2.5 S 7 11 4 6 1000.9 1000.7 0.0
23/12:00am 20.8 20.6 15.6 72 3.1 SSE 11 13 6 7 1001.4 1001.2 0.0
 
Date/Time
WST
Temp
°C
App
Temp
°C
Dew
Point
°C
Rel
Hum
%
Delta-T
°C
Wind Press
QNH
hPa
Press
MSL
hPa
Rain since
9am
mm
Dir  Spd
km/h
Gust
km/h
Spd
kts
Gust
kts
22/11:30pm 21.8 21.1 16.5 72 3.2 S 15 19 8 10 1001.9 1001.7 0.0
22/11:00pm 21.9 22.3 17.3 75 2.8 SSW 11 15 6 8 1002.4 1002.2 0.0
22/10:30pm 21.4 21.5 17.4 78 2.5 SW 13 15 7 8 1002.5 1002.3 0.0
22/10:00pm 21.8 23.1 17.2 75 2.8 S 6 9 3 5 1002.4 1002.2 0.0
22/09:30pm 22.5 23.3 17.2 72 3.3 SSE 9 11 5 6 1002.4 1002.2 0.0

Latest Capital City Observations: Canberra | Sydney | Melbourne | Brisbane | Adelaide | Perth | Hobart | Darwin

Other formats

Comma delimited format used in spreadsheet applications
http://www.bom.gov.au/fwo/IDW60901/IDW60901.94609.axf

JavaScript Object Notation format (JSON) in row-major order
http://www.bom.gov.au/fwo/IDW60901/IDW60901.94609.json

Data quality

Most of these data are generated automatically and are frequently updated. Quality checks on data are not normally performed. It is possible for incorrect values to appear. Refer to information at About Latest Weather Observations and please check the disclaimer before using these data.